Javier Esteban

Recruteur en chef - Albacete
12 Mai 2028
Vendredi
Processus

Personnalité

Adaptabilité (16) Ambition (14) Controverse (16) Loyauté (3) Pression (8) Professionnalisme (16) Sportivité (18) Tempérament (14)

Profil

Style d'entraînement Démocratique
Diplôme Continental B
Détermination 12
Gestion des joueurs 6
Motivation 10
Discipline 11
Satisfaction professionnelle
68%
Fatigue
0%
Rôle Recruteur en chef
Salaire 15.7K p/s
Contrat 14.03.2030

Performance

Comportement Bon
Efficacité de l'entraînement
33%
Développement des joueurs
50%
Prévention des blessures
25%
Mise en place tactique
50%

Suivi en cours

55
Joueur Club Statut Capacité Confiance Observé Dernière observation Dernier vote
Edwar López Independiente Medellin Actif 117 / 117 67% 1 01.01.2028 Approuver
Matej Poplatnik Grêmio Actif 113 / 113 66% 1 01.01.2028 Approuver
John Okoye Ebuka Atlético Mineiro Actif 117 / 117 67% 1 01.01.2028 Approuver
Keimer Sandoval Deportivo Cali Actif 98 / 106 40% 1 24.08.2027 -
Ángel Peñaranda Mineros de Guayana Actif 97 / 93 40% 1 24.08.2027 -
Felipe Faúndez O'Higgins Actif 105 / 107 40% 1 16.08.2027 -
Jhon Cortez Barranquilla Actif 94 / 83 40% 1 13.08.2027 -
Jhoan Merino Racing Club Actif 98 / 97 40% 1 13.08.2027 -
Chibueze Oputa Rangers International Actif 81 / 94 40% 2 04.08.2027 -
Jose Rodriguez La Equidad Actif 92 / 106 40% 1 04.08.2027 -
Joe Bauress Grimsby Town Actif 94 / 90 40% 2 01.08.2027 -
Rhys Chadwick Peterborough United Actif 106 / 108 40% 1 01.08.2027 -
Wilmar Borja La Equidad Actif 108 / 109 40% 2 31.07.2027 -
Simone Kosijer Triestina Actif 99 / 100 40% 2 31.07.2027 -
T-Jay Parfitt Colchester United Actif 90 / 95 40% 1 31.07.2027 -
Marco Oroná Antofagasta Actif 106 / 101 40% 1 28.07.2027 -
Joe Knight Stevenage Actif 98 / 114 40% 3 27.07.2027 -
Toni Tamarit Alverca Actif 116 / 128 40% 1 26.07.2027 -
Kazunari Kita Real Sociedad Actif 97 / 106 40% 2 16.07.2027 -
Rafael Vargas Cortulua Actif 91 / 99 40% 2 14.07.2027 -
Esteban de Lima Tacuarembo Actif 95 / 91 40% 1 14.07.2027 -
Ismaël Baouf Cambuur Actif 119 / 121 40% 1 12.07.2027 -
Daniel Banjaqui Benfica Actif 123 / 121 40% 1 12.07.2027 -
Alessio Insignito Spezia Actif 92 / 110 40% 1 07.07.2027 -
Fabián Correa Barranquilla Actif 79 / 96 40% 1 07.07.2027 -
José Neto Alverca Actif 121 / 121 40% 2 05.07.2027 -
Pape Diong Westerlo Actif 111 / 124 40% 2 05.07.2027 -
Afriyie Sulemana Hasaacas Actif 94 / 95 40% 1 05.07.2027 -
José Pachuca Puebla Actif 102 / 121 40% 5 04.07.2027 -
Jan Bürger Preston Actif 114 / 115 40% 3 29.06.2027 -
Dylan Lawlor Cardiff City Actif 117 / 129 40% 1 29.06.2027 -
Zane Albarus Colchester United Actif 93 / 100 40% 1 28.06.2027 -
Gady Beyuku Modena Actif 119 / 124 40% 1 28.06.2027 -
Mohamed Sherif Halmstad Actif 110 / 110 67% 1 01.06.2027 Approuver
Arjan Malić Sturm Graz Actif 118 / 125 40% 2 28.01.2027 -
Patrik Kovács Fehervar Actif 113 / 116 40% 1 28.01.2027 -
Elie N'Gatta Sochaux Actif 99 / 104 40% 2 26.01.2027 Plus d'infos
Ignacio Ovando Rosario Central Actif 112 / 113 40% 1 25.01.2027 Plus d'infos
Ignacio Perruzzi San Lorenzo Actif 115 / 120 40% 3 15.01.2027 -
Milan Roganović Partizan Actif 110 / 124 40% 1 15.01.2027 -
Martim Cunha Porto Actif 91 / 111 40% 1 13.01.2027 -
Mathieu Brun Chamois Niortais Actif 117 / 127 40% 1 13.01.2027 -
Kyriani Sabbe Club Brugge Actif 125 / 125 40% 1 12.01.2027 -
Tiago Freitas Benfica Actif 108 / 111 40% 2 08.01.2027 -
Denys Smetana Inhulets Actif 84 / 91 40% 1 07.01.2027 -
Louis Leroux FC Nantes Actif 130 / 128 40% 2 03.01.2027 -
Lucas Camilo Puebla Actif 73 / 87 40% 1 02.01.2027 -
Juan Rodríguez Cagliari Actif 122 / 119 40% 1 01.01.2027 -
Agustín Obregón River Plate Actif 95 / 109 40% 1 24.08.2026 -
Joaquín Soria Talleres Actif 96 / 83 40% 1 21.08.2026 -
Isaí Valladares Zamora Actif 86 / 90 40% 1 21.08.2026 -
Diogo Bagüí Tijuana Actif 106 / 121 40% 1 12.08.2026 -
Santiago Fernández Talleres Actif 114 / 132 40% 2 11.08.2026 -
Ramiro Martino Independiente Actif 94 / 95 40% 1 11.08.2026 -
Ismael Díaz Leon Actif 114 / 114 40% 1 02.08.2026 -